Time;durP1;ratioP1;P1;durP2;ratioP2;P2;SDS_P1;SDS_P2;PMS_P1;PMS_P2;Temp;Humidity;BMP_temperature;BMP_pressure;BME280_temperature;BME280_humidity;BME280_pressure;Samples;Min_cycle;Max_cycle;Signal;HPM_P1;HPM_P2
2023/04/20 00:06:28;;;;;;;17.45;10.60;;;;;;;9.06;100.00;94395.78;10409926;28;20722;-71
2023/04/20 00:11:29;;;;;;;13.80;9.55;;;;;;;9.14;100.00;94388.25;10424318;28;20025;-71
2023/04/20 00:16:32;;;;;;;12.77;9.55;;;;;;;9.15;100.00;94381.81;10423330;28;20051;-70
2023/04/20 00:21:33;;;;;;;12.55;9.52;;;;;;;9.16;100.00;94378.84;10424543;28;20036;-71
2023/04/20 00:26:34;;;;;;;16.25;8.95;;;;;;;9.16;100.00;94367.34;10424136;28;20390;-70
2023/04/20 00:31:34;;;;;;;14.52;8.95;;;;;;;9.19;100.00;94372.16;10424327;28;20076;-71
2023/04/20 00:36:35;;;;;;;16.02;9.25;;;;;;;9.11;100.00;94362.00;10424439;28;20037;-71
2023/04/20 00:41:35;;;;;;;20.42;9.15;;;;;;;9.04;100.00;94368.44;10424588;28;20458;-72
2023/04/20 00:46:36;;;;;;;13.10;9.73;;;;;;;9.13;100.00;94370.56;10424357;28;20037;-71
2023/04/20 00:51:37;;;;;;;15.02;10.25;;;;;;;9.13;100.00;94365.22;10424238;28;20402;-71
2023/04/20 00:56:38;;;;;;;19.55;10.05;;;;;;;9.12;100.00;94358.25;10406320;28;20041;-70
2023/04/20 01:01:38;;;;;;;17.05;10.85;;;;;;;9.04;100.00;94362.28;10424077;28;20032;-72
2023/04/20 01:06:40;;;;;;;15.98;10.35;;;;;;;8.95;100.00;94364.72;10456930;28;20032;-74
2023/04/20 01:11:40;;;;;;;12.70;9.20;;;;;;;8.94;100.00;94357.75;10431218;28;20499;-74
2023/04/20 01:16:41;;;;;;;15.80;9.70;;;;;;;8.97;100.00;94362.56;10432069;28;20471;-71
2023/04/20 01:21:46;;;;;;;19.10;9.18;;;;;;;8.97;100.00;94362.56;10412601;28;20029;-71
2023/04/20 01:26:46;;;;;;;15.82;9.38;;;;;;;8.85;100.00;94359.38;10413743;28;20434;-73
2023/04/20 01:31:47;;;;;;;18.25;10.25;;;;;;;8.74;100.00;94360.47;10451666;28;20035;-71
2023/04/20 01:36:47;;;;;;;18.02;10.70;;;;;;;8.81;100.00;94359.13;10457688;28;20173;-72
2023/04/20 01:41:47;;;;;;;16.65;10.38;;;;;;;8.82;100.00;94357.22;10430695;28;20025;-72
2023/04/20 01:46:48;;;;;;;19.98;9.80;;;;;;;8.92;100.00;94362.59;10430743;28;20041;-72
2023/04/20 01:51:49;;;;;;;12.73;9.67;;;;;;;8.95;100.00;94353.19;10430249;28;20038;-73
2023/04/20 01:56:49;;;;;;;13.45;8.95;;;;;;;8.77;100.00;94349.22;10411870;28;20782;-73
2023/04/20 02:01:50;;;;;;;18.13;11.13;;;;;;;8.48;100.00;94339.84;10430382;28;20553;-72
2023/04/20 02:06:50;;;;;;;15.45;10.10;;;;;;;8.60;100.00;94339.59;10429036;28;20332;-73
2023/04/20 02:11:50;;;;;;;13.97;8.93;;;;;;;8.78;100.00;94340.13;10429835;28;20041;-73
2023/04/20 02:16:52;;;;;;;15.40;9.20;;;;;;;8.82;100.00;94339.28;10429206;28;20378;-72
2023/04/20 02:21:52;;;;;;;14.75;9.25;;;;;;;8.89;100.00;94339.81;10429336;28;20021;-72
2023/04/20 02:26:52;;;;;;;14.03;9.80;;;;;;;8.88;100.00;94348.13;10429048;28;20033;-72
2023/04/20 02:31:53;;;;;;;15.50;9.97;;;;;;;8.84;100.00;94345.16;10428734;28;20294;-71
2023/04/20 02:36:53;;;;;;;16.30;9.23;;;;;;;8.78;100.00;94340.13;10428678;28;20268;-70
2023/04/20 02:41:54;;;;;;;19.77;9.45;;;;;;;8.84;100.00;94342.47;10428924;28;20090;-70
2023/04/20 02:46:55;;;;;;;15.57;8.80;;;;;;;8.94;100.00;94347.03;10413614;28;20440;-71
2023/04/20 02:51:55;;;;;;;15.70;10.07;;;;;;;8.93;100.00;94352.66;10407335;28;20025;-70
2023/04/20 02:56:57;;;;;;;20.57;10.70;;;;;;;8.72;100.00;94348.16;10406148;28;20057;-70
2023/04/20 03:02:00;;;;;;;16.45;10.27;;;;;;;8.74;100.00;94344.41;10406627;28;20700;-73
2023/04/20 03:07:01;;;;;;;14.10;9.63;;;;;;;8.78;100.00;94340.91;10404545;28;20027;-74
2023/04/20 03:12:02;;;;;;;20.67;10.10;;;;;;;8.81;100.00;94343.03;10416396;28;20036;-74
2023/04/20 03:17:03;;;;;;;17.27;11.40;;;;;;;8.72;100.00;94350.00;10418680;28;20076;-71
2023/04/20 03:22:06;;;;;;;15.52;9.50;;;;;;;8.81;100.00;94345.72;10411887;28;20489;-72
2023/04/20 03:27:06;;;;;;;24.80;10.68;;;;;;;8.83;100.00;94345.44;10398703;28;20420;-75
2023/04/20 03:32:07;;;;;;;21.98;11.52;;;;;;;8.92;100.00;94343.81;10406841;28;20025;-74
2023/04/20 03:37:07;;;;;;;14.60;9.80;;;;;;;8.86;100.00;94348.41;10397915;28;20032;-72
2023/04/20 03:42:07;;;;;;;16.73;10.87;;;;;;;8.89;100.00;94342.47;10411083;28;20033;-72
2023/04/20 03:47:09;;;;;;;16.27;10.30;;;;;;;8.82;100.00;94350.00;10424245;28;20293;-73
2023/04/20 03:52:09;;;;;;;17.60;10.75;;;;;;;8.93;100.00;94355.34;10386619;28;20839;-73
2023/04/20 03:57:10;;;;;;;16.95;10.95;;;;;;;9.04;100.00;94357.72;10418104;28;20029;-73
2023/04/20 04:02:12;;;;;;;17.00;11.00;;;;;;;9.05;100.00;94353.16;10409954;28;20017;-74
2023/04/20 04:07:12;;;;;;;14.80;9.80;;;;;;;9.17;100.00;94355.56;10438376;28;20450;-74
2023/04/20 04:12:13;;;;;;;17.20;9.57;;;;;;;9.20;100.00;94358.47;10424292;28;20078;-70
2023/04/20 04:17:14;;;;;;;18.10;9.50;;;;;;;9.34;100.00;94358.69;10399655;28;20088;-72
2023/04/20 04:22:14;;;;;;;17.92;11.48;;;;;;;9.35;100.00;94365.66;10405274;28;20340;-72
2023/04/20 04:27:15;;;;;;;17.02;11.30;;;;;;;9.37;100.00;94370.75;10423312;28;20140;-73
2023/04/20 04:32:16;;;;;;;18.17;11.20;;;;;;;9.46;100.00;94368.28;10420767;28;20024;-71
2023/04/20 04:37:38;;;;;;;23.30;11.63;;;;;;;9.43;100.00;94368.84;10420610;28;20071;-72
2023/04/20 04:42:38;;;;;;;23.00;13.27;;;;;;;9.55;100.00;94374.69;10431855;28;20033;-70
2023/04/20 04:47:42;;;;;;;22.05;11.57;;;;;;;9.47;100.00;94375.28;10431608;28;20181;-73
2023/04/20 04:52:42;;;;;;;19.75;12.43;;;;;;;9.51;100.00;94381.69;10432095;28;20384;-72
2023/04/20 04:57:42;;;;;;;31.50;11.38;;;;;;;9.50;100.00;94380.09;10431762;28;20029;-74
2023/04/20 05:02:43;;;;;;;25.73;13.63;;;;;;;9.56;100.00;94385.16;10391929;28;20554;-73
2023/04/20 05:07:43;;;;;;;27.42;14.35;;;;;;;9.63;100.00;94389.41;10425095;28;20432;-74
2023/04/20 05:12:45;;;;;;;37.67;14.82;;;;;;;9.54;100.00;94387.31;10413364;28;20128;-73
2023/04/20 05:17:48;;;;;;;28.33;14.52;;;;;;;9.61;100.00;94392.38;10412109;28;20041;-72
2023/04/20 05:22:48;;;;;;;21.00;13.73;;;;;;;9.77;100.00;94385.06;10429306;28;20047;-73
2023/04/20 05:27:49;;;;;;;23.42;12.63;;;;;;;9.80;100.00;94389.09;10430592;28;20389;-74
2023/04/20 05:32:50;;;;;;;21.23;13.23;;;;;;;9.87;100.00;94389.56;10418818;28;20031;-71
2023/04/20 05:37:50;;;;;;;17.98;11.45;;;;;;;9.96;100.00;94390.59;10411937;28;20043;-73
2023/04/20 05:42:50;;;;;;;19.92;13.20;;;;;;;10.08;100.00;94395.63;10429652;28;20029;-72
2023/04/20 05:47:52;;;;;;;50.77;16.67;;;;;;;10.25;100.00;94397.94;10429391;28;20052;-74
2023/04/20 05:52:53;;;;;;;23.38;14.27;;;;;;;10.27;100.00;94403.84;10428589;28;20115;-73
2023/04/20 05:57:53;;;;;;;23.63;14.60;;;;;;;10.34;100.00;94395.44;10411756;28;20663;-72
2023/04/20 06:02:54;;;;;;;28.05;14.25;;;;;;;10.45;100.00;94404.28;10411438;28;20515;-72
2023/04/20 06:07:54;;;;;;;22.45;13.25;;;;;;;10.55;100.00;94393.47;10411539;28;20021;-72
2023/04/20 06:12:55;;;;;;;25.20;15.02;;;;;;;10.55;100.00;94398.84;10429074;28;20017;-74
2023/04/20 06:17:55;;;;;;;24.98;12.90;;;;;;;10.56;100.00;94395.88;10428733;28;20174;-73
2023/04/20 06:22:56;;;;;;;22.50;13.00;;;;;;;10.62;100.00;94401.19;10428997;28;20070;-72
2023/04/20 06:27:56;;;;;;;23.40;13.13;;;;;;;10.66;100.00;94408.41;10428395;28;20036;-74
2023/04/20 06:32:57;;;;;;;28.33;15.40;;;;;;;10.67;100.00;94401.94;10428172;28;20287;-72
2023/04/20 06:37:58;;;;;;;38.25;14.70;;;;;;;10.58;100.00;94400.94;10428051;28;20765;-71
2023/04/20 06:42:58;;;;;;;29.42;13.48;;;;;;;10.68;100.00;94411.59;10427403;28;20025;-73
2023/04/20 06:47:59;;;;;;;27.27;15.85;;;;;;;10.79;100.00;94415.03;10415531;28;20036;-71
2023/04/20 06:53:02;;;;;;;28.08;14.02;;;;;;;10.61;100.00;94424.56;10407712;28;20036;-70
2023/04/20 06:58:02;;;;;;;32.45;16.25;;;;;;;10.60;100.00;94428.34;10427747;28;20048;-71
2023/04/20 07:03:03;;;;;;;30.88;16.45;;;;;;;10.60;100.00;94429.16;10425830;28;20021;-72
2023/04/20 07:08:04;;;;;;;24.75;13.73;;;;;;;10.65;100.00;94440.94;10427368;28;20017;-72
2023/04/20 07:13:04;;;;;;;27.95;14.95;;;;;;;10.54;100.00;94438.31;10426709;28;20024;-73
2023/04/20 07:18:05;;;;;;;22.23;14.32;;;;;;;10.65;100.00;94438.25;10427043;28;20127;-73
2023/04/20 07:23:05;;;;;;;28.25;15.68;;;;;;;10.76;100.00;94437.09;10427516;28;20016;-73
2023/04/20 07:28:06;;;;;;;25.80;13.87;;;;;;;10.94;100.00;94432.91;10426823;28;20036;-73
2023/04/20 07:33:07;;;;;;;30.00;15.80;;;;;;;11.22;100.00;94431.28;10426872;28;20754;-72
2023/04/20 07:38:07;;;;;;;27.77;15.40;;;;;;;11.38;100.00;94431.91;10425632;28;20033;-72
2023/04/20 07:43:08;;;;;;;32.97;14.70;;;;;;;11.72;100.00;94428.34;10425726;28;20443;-71
2023/04/20 07:48:08;;;;;;;27.55;13.02;;;;;;;11.71;100.00;94423.25;10425494;28;20521;-74
2023/04/20 07:53:09;;;;;;;33.10;12.90;;;;;;;12.18;100.00;94418.06;10425106;28;20074;-73
2023/04/20 07:58:10;;;;;;;28.52;13.38;;;;;;;12.63;100.00;94421.19;10424728;28;20513;-75
2023/04/20 08:03:11;;;;;;;20.35;11.57;;;;;;;13.11;100.00;94415.53;10407414;28;20032;-72
2023/04/20 08:08:11;;;;;;;23.00;10.23;;;;;;;13.72;100.00;94431.72;10424870;28;20040;-74
2023/04/20 08:13:12;;;;;;;26.87;11.50;;;;;;;14.36;100.00;94420.94;10406441;28;20037;-74
2023/04/20 08:18:12;;;;;;;20.83;9.80;;;;;;;14.78;100.00;94418.13;10424342;28;20292;-75
2023/04/20 08:23:13;;;;;;;19.73;9.23;;;;;;;16.19;98.10;94408.72;10424634;28;20474;-75
2023/04/20 08:28:13;;;;;;;15.05;9.68;;;;;;;16.00;99.42;94412.50;10424936;28;20272;-74
2023/04/20 08:33:14;;;;;;;16.08;10.20;;;;;;;15.58;92.64;94420.16;10424039;28;20036;-73
2023/04/20 08:38:15;;;;;;;15.95;9.90;;;;;;;14.28;100.00;94428.97;10406580;28;20036;-74
2023/04/20 08:43:15;;;;;;;17.38;9.63;;;;;;;13.60;100.00;94436.81;10424346;28;20452;-73
2023/04/20 08:48:16;;;;;;;21.05;12.10;;;;;;;13.52;100.00;94427.50;10424153;28;20395;-74
2023/04/20 08:53:16;;;;;;;20.73;11.52;;;;;;;13.32;100.00;94420.56;10424229;28;20037;-74
2023/04/20 08:58:17;;;;;;;22.75;10.85;;;;;;;13.69;100.00;94424.25;10423997;28;20029;-74
2023/04/20 09:03:30;;;;;;;21.48;12.48;;;;;;;13.74;100.00;94431.44;10423714;28;20025;-72
2023/04/20 09:08:37;;;;;;;19.90;11.50;;;;;;;13.75;100.00;94419.53;10424104;28;20538;-73
2023/04/20 09:13:37;;;;;;;15.30;11.00;;;;;;;14.10;100.00;94423.38;10423364;28;20033;-73
2023/04/20 09:18:38;;;;;;;18.50;10.60;;;;;;;13.73;100.00;94422.53;10423670;28;20795;-71
2023/04/20 09:23:39;;;;;;;38.30;11.68;;;;;;;14.03;100.00;94425.72;10423262;28;20047;-73
2023/04/20 09:28:40;;;;;;;18.85;11.18;;;;;;;14.10;100.00;94409.09;10430948;28;20032;-75
2023/04/20 09:33:41;;;;;;;18.90;10.55;;;;;;;13.11;100.00;94406.66;10431463;28;20039;-74
2023/04/20 09:38:42;;;;;;;15.27;9.55;;;;;;;13.54;100.00;94413.72;10430703;28;20028;-74
2023/04/20 09:43:44;;;;;;;16.50;10.38;;;;;;;13.98;100.00;94417.69;10430360;28;20029;-74
2023/04/20 09:48:45;;;;;;;13.55;9.27;;;;;;;15.42;100.00;94400.81;10430291;28;20099;-73
2023/04/20 09:53:46;;;;;;;25.02;9.30;;;;;;;17.33;88.44;94398.63;10431088;28;20064;-73
2023/04/20 09:58:47;;;;;;;15.30;9.55;;;;;;;17.43;86.76;94395.56;10429817;28;20116;-72
2023/04/20 10:03:48;;;;;;;16.95;7.70;;;;;;;18.77;67.54;94387.13;10429794;28;20082;-73
2023/04/20 10:08:50;;;;;;;11.95;7.70;;;;;;;18.69;74.54;94386.03;10429222;28;20028;-73
2023/04/20 10:13:51;;;;;;;13.02;8.02;;;;;;;18.37;66.02;94385.66;10428862;28;20400;-73
2023/04/20 10:19:03;;;;;;;12.45;8.32;;;;;;;18.13;75.55;94371.91;10428927;28;20059;-72
2023/04/20 10:24:03;;;;;;;12.32;8.75;;;;;;;16.18;84.05;94374.59;10428389;28;20036;-73
2023/04/20 10:29:10;;;;;;;18.27;9.35;;;;;;;17.26;81.85;94376.59;10428418;28;20037;-73
2023/04/20 10:34:11;;;;;;;12.77;7.43;;;;;;;19.53;64.67;94366.00;10434161;28;20407;-73
2023/04/20 10:39:16;;;;;;;10.60;7.35;;;;;;;17.70;69.57;94373.72;10428447;28;20295;-75
2023/04/20 10:44:17;;;;;;;16.42;9.40;;;;;;;18.65;68.86;94365.28;10428475;28;20045;-74
2023/04/20 10:49:17;;;;;;;12.63;7.87;;;;;;;17.85;73.05;94365.00;10428399;28;20762;-74
2023/04/20 10:54:18;;;;;;;13.30;8.18;;;;;;;18.55;69.46;94356.38;10392189;28;20100;-74
2023/04/20 10:59:23;;;;;;;10.07;7.82;;;;;;;20.35;59.61;94350.63;10386971;28;20025;-75
2023/04/20 11:04:34;;;;;;;10.00;6.75;;;;;;;21.53;55.18;94355.06;10385909;28;20029;-68
2023/04/20 11:09:37;;;;;;;8.77;6.05;;;;;;;22.49;47.05;94338.50;10427329;28;20028;-68
2023/04/20 11:14:51;;;;;;;10.70;5.78;;;;;;;22.43;47.75;94345.41;10427235;28;20102;-78
2023/04/20 11:20:03;;;;;;;12.13;5.97;;;;;;;20.52;49.61;94335.91;10427961;28;20076;-77
2023/04/20 11:25:06;;;;;;;8.93;5.70;;;;;;;19.81;54.90;94340.81;10407829;28;20163;-78
2023/04/20 11:30:08;;;;;;;12.55;7.88;;;;;;;19.27;56.21;94333.59;10399255;28;20377;-75
2023/04/20 11:35:11;;;;;;;20.08;6.65;;;;;;;18.97;60.40;94338.44;10403704;28;20047;-76
2023/04/20 11:40:12;;;;;;;10.25;6.85;;;;;;;18.48;65.88;94337.06;10402886;28;20052;-75
2023/04/20 11:45:12;;;;;;;11.32;7.20;;;;;;;17.12;70.47;94344.22;10405881;28;20547;-75
2023/04/20 11:50:13;;;;;;;12.63;7.90;;;;;;;16.70;70.71;94344.75;10401907;28;20420;-73
2023/04/20 11:55:14;;;;;;;12.63;7.10;;;;;;;15.92;78.00;94332.00;10402670;28;20279;-73
2023/04/20 12:00:14;;;;;;;11.20;7.20;;;;;;;15.30;89.18;94330.22;10395672;28;20416;-74
2023/04/20 12:05:15;;;;;;;11.23;7.20;;;;;;;15.86;84.50;94325.91;10406670;28;20574;-73
2023/04/20 12:10:16;;;;;;;8.73;6.03;;;;;;;16.12;80.13;94329.78;10391185;28;20388;-75
2023/04/20 12:15:17;;;;;;;10.48;6.95;;;;;;;16.04;78.08;94325.94;10384667;28;20083;-76
2023/04/20 12:20:20;;;;;;;10.80;7.10;;;;;;;14.92;88.78;94327.97;10361138;28;20203;-75
2023/04/20 12:25:21;;;;;;;12.02;6.68;;;;;;;15.18;90.67;94323.47;10351085;28;20109;-75
2023/04/20 12:30:25;;;;;;;14.18;8.52;;;;;;;14.93;88.16;94329.56;10356212;28;20040;-73
2023/04/20 12:35:25;;;;;;;13.55;8.38;;;;;;;14.60;93.77;94329.81;10373671;28;20029;-74
2023/04/20 12:40:26;;;;;;;12.45;7.53;;;;;;;14.27;98.03;94327.34;10351470;28;20041;-74
2023/04/20 12:45:26;;;;;;;21.65;8.43;;;;;;;14.21;100.00;94331.28;10356259;28;20524;-75
2023/04/20 12:50:30;;;;;;;11.48;6.80;;;;;;;14.13;99.06;94324.69;10370590;28;20037;-75
2023/04/20 12:55:30;;;;;;;13.32;6.38;;;;;;;14.13;99.55;94325.50;10363569;28;20091;-74
2023/04/20 13:00:31;;;;;;;16.90;9.30;;;;;;;14.22;100.00;94322.88;10364160;28;20461;-74
2023/04/20 13:05:43;;;;;;;10.67;6.90;;;;;;;14.24;100.00;94327.97;10369538;28;20034;-75
2023/04/20 13:10:44;;;;;;;10.35;6.55;;;;;;;14.65;100.00;94319.72;10378037;28;20160;-74
2023/04/20 13:15:45;;;;;;;9.80;6.28;;;;;;;15.02;97.50;94320.38;10380923;28;20907;-72
2023/04/20 13:20:45;;;;;;;9.93;6.20;;;;;;;14.97;100.00;94320.53;10467288;28;20043;-73
2023/04/20 13:25:45;;;;;;;7.45;4.72;;;;;;;14.88;100.00;94325.06;10431306;28;20293;-73
2023/04/20 13:30:46;;;;;;;9.47;6.37;;;;;;;14.59;100.00;94326.31;10428437;28;20061;-73
2023/04/20 13:35:47;;;;;;;11.60;5.03;;;;;;;14.46;100.00;94332.59;10429040;28;20362;-73
2023/04/20 13:40:47;;;;;;;6.03;4.38;;;;;;;14.43;100.00;94325.06;10429480;28;20029;-74
2023/04/20 13:45:48;;;;;;;8.30;5.30;;;;;;;14.37;100.00;94324.41;10458915;28;20037;-73
2023/04/20 13:50:48;;;;;;;9.35;5.70;;;;;;;14.37;100.00;94327.09;10413257;28;20411;-73
2023/04/20 13:55:49;;;;;;;9.75;5.63;;;;;;;14.13;100.00;94328.19;10428151;28;20456;-74
2023/04/20 14:00:50;;;;;;;12.48;5.55;;;;;;;14.14;100.00;94327.09;10429602;28;20109;-72
2023/04/20 14:05:50;;;;;;;11.33;6.00;;;;;;;14.07;100.00;94334.81;10429154;28;20032;-73
2023/04/20 14:10:51;;;;;;;12.93;5.30;;;;;;;13.98;100.00;94333.94;10428482;28;20394;-72
2023/04/20 14:15:54;;;;;;;11.75;5.82;;;;;;;13.95;100.00;94335.38;10428135;28;20164;-72
2023/04/20 14:20:55;;;;;;;14.55;6.75;;;;;;;13.60;100.00;94335.00;10427938;28;20017;-73
2023/04/20 14:25:56;;;;;;;11.05;7.00;;;;;;;13.65;100.00;94344.94;10406326;28;20026;-73
2023/04/20 14:30:56;;;;;;;14.65;6.88;;;;;;;13.60;100.00;94336.91;10387110;28;20065;-73
2023/04/20 14:35:57;;;;;;;7.35;5.28;;;;;;;13.30;100.00;94339.91;10386919;28;20087;-73
2023/04/20 14:41:00;;;;;;;14.33;6.00;;;;;;;13.29;100.00;94341.00;10387209;28;20029;-73
2023/04/20 14:46:01;;;;;;;11.98;5.97;;;;;;;13.55;100.00;94337.84;10395419;28;20286;-72
2023/04/20 14:51:01;;;;;;;16.23;7.15;;;;;;;13.58;100.00;94347.25;10426851;28;20488;-72
2023/04/20 14:56:02;;;;;;;13.48;8.60;;;;;;;13.95;100.00;94332.66;10427265;28;20037;-72
2023/04/20 15:01:03;;;;;;;10.77;7.25;;;;;;;14.24;100.00;94338.78;10426279;28;20400;-73
2023/04/20 15:06:04;;;;;;;10.45;5.65;;;;;;;14.28;100.00;94345.19;10426773;28;20495;-74
2023/04/20 15:11:04;;;;;;;4.82;3.03;;;;;;;14.13;100.00;94347.09;10413483;28;20025;-73
2023/04/20 15:16:08;;;;;;;5.07;3.60;;;;;;;13.94;100.00;94341.06;10379840;28;20132;-73
2023/04/20 15:21:09;;;;;;;5.18;3.88;;;;;;;13.74;100.00;94348.50;10425926;28;20412;-73
2023/04/20 15:26:10;;;;;;;7.15;4.18;;;;;;;13.65;100.00;94343.00;10424785;28;20044;-73
2023/04/20 15:31:15;;;;;;;10.20;6.03;;;;;;;13.66;100.00;94350.03;10408111;28;20021;-73
2023/04/20 15:36:18;;;;;;;5.95;4.90;;;;;;;13.65;100.00;94339.53;10448200;28;20028;-73
2023/04/20 15:41:19;;;;;;;14.77;7.60;;;;;;;13.49;100.00;94339.84;10430173;28;20025;-73
2023/04/20 15:46:23;;;;;;;10.00;5.30;;;;;;;13.45;100.00;94341.53;10424248;28;20032;-73
2023/04/20 15:51:23;;;;;;;15.45;5.90;;;;;;;13.40;100.00;94340.84;10424658;28;20057;-73
2023/04/20 15:56:24;;;;;;;8.23;5.70;;;;;;;12.90;100.00;94338.78;10425051;28;20144;-73
2023/04/20 16:01:24;;;;;;;10.93;6.23;;;;;;;12.43;100.00;94344.97;10424855;28;20021;-72
2023/04/20 16:06:25;;;;;;;10.38;7.70;;;;;;;12.27;100.00;94355.16;10424917;28;20333;-73
2023/04/20 16:11:25;;;;;;;8.85;6.03;;;;;;;12.16;100.00;94342.94;10424561;28;20021;-73
2023/04/20 16:16:26;;;;;;;16.50;6.10;;;;;;;11.94;100.00;94347.03;10424170;28;20136;-73
2023/04/20 16:21:26;;;;;;;9.55;6.63;;;;;;;11.88;100.00;94341.97;10424614;28;20025;-73
2023/04/20 16:26:27;;;;;;;10.45;7.90;;;;;;;11.84;100.00;94339.06;10422683;28;20027;-73
2023/04/20 16:31:28;;;;;;;9.65;5.95;;;;;;;11.82;100.00;94332.34;10392173;28;20065;-71
2023/04/20 16:36:28;;;;;;;9.30;5.78;;;;;;;11.81;100.00;94339.63;10413641;28;20036;-74
2023/04/20 16:41:29;;;;;;;9.23;5.97;;;;;;;11.86;100.00;94330.69;10422722;28;20438;-69
2023/04/20 16:46:30;;;;;;;9.97;6.40;;;;;;;11.91;100.00;94330.63;10439244;28;20479;-74
2023/04/20 16:51:32;;;;;;;13.40;7.97;;;;;;;11.84;100.00;94328.28;10426923;28;20041;-75
2023/04/20 16:56:32;;;;;;;15.30;7.20;;;;;;;11.85;100.00;94335.28;10434976;28;20321;-75
2023/04/20 17:01:32;;;;;;;14.85;8.93;;;;;;;11.73;100.00;94326.81;10438262;28;20047;-75
2023/04/20 17:06:33;;;;;;;14.13;7.47;;;;;;;11.61;100.00;94333.44;10437476;28;20395;-73
2023/04/20 17:11:34;;;;;;;11.80;7.07;;;;;;;11.71;100.00;94329.03;10395813;28;20295;-72
2023/04/20 17:16:35;;;;;;;9.57;6.07;;;;;;;11.69;100.00;94333.88;10431128;28;20479;-74
2023/04/20 17:21:35;;;;;;;13.63;6.15;;;;;;;11.67;100.00;94339.56;10428594;28;20130;-73
2023/04/20 17:26:36;;;;;;;10.93;6.37;;;;;;;11.60;100.00;94336.41;10422910;28;20029;-73
2023/04/20 17:31:36;;;;;;;18.92;7.70;;;;;;;11.57;100.00;94331.63;10436093;28;20321;-74
2023/04/20 17:36:37;;;;;;;10.68;6.85;;;;;;;11.67;100.00;94339.56;10426708;28;20032;-75
2023/04/20 17:41:37;;;;;;;13.75;5.95;;;;;;;11.68;100.00;94340.34;10427007;28;20024;-75
2023/04/20 17:46:38;;;;;;;15.55;8.13;;;;;;;11.64;100.00;94337.44;10420338;28;20112;-73
2023/04/20 17:51:38;;;;;;;15.30;9.02;;;;;;;11.74;100.00;94342.69;10420317;28;20065;-73
2023/04/20 17:56:38;;;;;;;17.30;9.27;;;;;;;11.83;100.00;94353.59;10425253;28;20035;-72
2023/04/20 18:01:39;;;;;;;18.77;8.73;;;;;;;11.95;100.00;94353.22;10429142;28;20016;-70
2023/04/20 18:06:40;;;;;;;16.95;8.50;;;;;;;11.95;100.00;94353.22;10417054;28;20275;-70
2023/04/20 18:11:40;;;;;;;16.75;8.93;;;;;;;12.00;100.00;94360.41;10393054;28;20798;-68
2023/04/20 18:16:44;;;;;;;19.80;8.82;;;;;;;12.02;100.00;94361.72;10431105;28;20037;-72
2023/04/20 18:21:44;;;;;;;15.70;9.55;;;;;;;12.10;100.00;94361.06;10430231;28;20025;-72
2023/04/20 18:26:45;;;;;;;22.77;9.60;;;;;;;12.13;100.00;94357.78;10421152;28;20036;-71
2023/04/20 18:31:48;;;;;;;25.52;9.50;;;;;;;12.19;100.00;94363.91;10420987;28;20492;-71
2023/04/20 18:36:49;;;;;;;18.33;9.43;;;;;;;12.19;100.00;94358.50;10422198;28;20021;-71
2023/04/20 18:41:50;;;;;;;16.33;8.93;;;;;;;12.21;100.00;94374.38;10423586;28;20016;-71
2023/04/20 18:46:50;;;;;;;24.95;8.65;;;;;;;12.24;100.00;94371.13;10424873;28;20024;-71
2023/04/20 18:51:51;;;;;;;18.05;9.88;;;;;;;12.28;100.00;94380.22;10418808;28;20123;-71
2023/04/20 18:56:53;;;;;;;20.80;10.25;;;;;;;12.29;100.00;94385.31;10420505;28;20442;-72
2023/04/20 19:01:54;;;;;;;18.92;10.52;;;;;;;12.28;100.00;94382.91;10421690;28;20456;-72
2023/04/20 19:06:54;;;;;;;19.30;10.40;;;;;;;12.28;100.00;94388.31;10431363;28;20460;-72
2023/04/20 19:11:55;;;;;;;29.45;11.75;;;;;;;12.24;100.00;94385.38;10416459;28;20029;-71
2023/04/20 19:16:56;;;;;;;20.63;9.98;;;;;;;12.23;100.00;94391.06;10421265;28;20132;-70
2023/04/20 19:21:59;;;;;;;23.15;10.85;;;;;;;12.16;100.00;94387.94;10427608;28;20360;-71
2023/04/20 19:27:00;;;;;;;21.50;11.35;;;;;;;12.14;100.00;94389.03;10421844;28;20031;-71
2023/04/20 19:32:01;;;;;;;24.65;11.77;;;;;;;12.12;100.00;94396.59;10425388;28;20670;-70
2023/04/20 19:37:02;;;;;;;21.23;11.60;;;;;;;12.13;100.00;94400.09;10425911;28;20032;-72
2023/04/20 19:42:02;;;;;;;18.80;11.82;;;;;;;12.10;100.00;94388.00;10388877;28;20031;-71
2023/04/20 19:47:03;;;;;;;20.23;10.95;;;;;;;12.05;100.00;94385.38;10421549;28;20033;-75
2023/04/20 19:52:03;;;;;;;17.20;10.60;;;;;;;11.99;100.00;94397.31;10411705;28;20029;-72
2023/04/20 19:57:03;;;;;;;20.95;11.93;;;;;;;12.01;100.00;94387.06;10419596;28;20452;-72
2023/04/20 20:02:04;;;;;;;22.33;11.30;;;;;;;11.93;100.00;94393.88;10420973;28;20025;-72
2023/04/20 20:07:04;;;;;;;22.30;10.45;;;;;;;11.80;100.00;94390.00;10425577;28;20298;-72
2023/04/20 20:12:07;;;;;;;20.15;11.48;;;;;;;11.86;100.00;94395.31;10419512;28;20035;-72
2023/04/20 20:17:07;;;;;;;28.33;11.70;;;;;;;11.84;100.00;94392.13;10386837;28;20045;-72
2023/04/20 20:22:09;;;;;;;21.73;10.80;;;;;;;11.79;100.00;94392.97;10408731;28;20025;-72
2023/04/20 20:27:10;;;;;;;17.10;10.98;;;;;;;11.77;100.00;94398.63;10423059;28;20087;-72
2023/04/20 20:32:11;;;;;;;22.80;12.75;;;;;;;11.69;100.00;94399.28;10414338;28;20061;-71
2023/04/20 20:37:11;;;;;;;26.13;11.32;;;;;;;11.59;100.00;94400.19;10392413;28;20111;-71
2023/04/20 20:42:14;;;;;;;18.58;10.70;;;;;;;11.42;100.00;94394.50;10464709;28;20074;-71
2023/04/20 20:47:14;;;;;;;15.75;10.52;;;;;;;11.52;100.00;94399.75;10424704;28;20423;-71
2023/04/20 20:52:15;;;;;;;20.23;9.30;;;;;;;11.57;100.00;94398.91;10424094;28;20483;-71
2023/04/20 20:57:16;;;;;;;13.07;9.65;;;;;;;11.62;100.00;94396.97;10406267;28;20047;-71
2023/04/20 21:02:16;;;;;;;18.40;9.00;;;;;;;11.63;100.00;94395.06;10392684;28;20106;-72
2023/04/20 21:07:17;;;;;;;14.20;7.77;;;;;;;11.67;100.00;94392.59;10405983;28;20515;-71
2023/04/20 21:12:17;;;;;;;12.63;7.78;;;;;;;11.74;100.00;94393.84;10423906;28;20283;-72
2023/04/20 21:17:18;;;;;;;14.57;8.40;;;;;;;11.71;100.00;94399.00;10423705;28;20443;-72
2023/04/20 21:22:21;;;;;;;14.43;8.32;;;;;;;11.72;100.00;94398.72;10409665;28;20017;-71
2023/04/20 21:27:21;;;;;;;11.75;8.38;;;;;;;11.71;100.00;94399.00;10431865;28;20439;-70
2023/04/20 21:32:22;;;;;;;14.43;8.63;;;;;;;11.66;100.00;94393.69;10431373;28;20557;-70
2023/04/20 21:37:22;;;;;;;11.43;7.65;;;;;;;11.59;100.00;94396.72;10412921;28;20533;-71
2023/04/20 21:42:23;;;;;;;12.18;8.40;;;;;;;11.52;100.00;94401.66;10430827;28;20729;-72
2023/04/20 21:47:23;;;;;;;16.08;8.80;;;;;;;11.43;100.00;94394.22;10430014;28;20028;-72
2023/04/20 21:52:24;;;;;;;13.00;8.70;;;;;;;11.37;100.00;94399.94;10430288;28;20040;-72
2023/04/20 21:57:24;;;;;;;17.38;8.10;;;;;;;11.33;100.00;94399.72;10430348;28;20108;-72
2023/04/20 22:02:25;;;;;;;12.50;7.87;;;;;;;11.24;100.00;94404.09;10430447;28;20032;-71
2023/04/20 22:07:26;;;;;;;12.10;8.10;;;;;;;11.20;100.00;94403.88;10429774;28;20280;-72
2023/04/20 22:12:26;;;;;;;13.50;7.50;;;;;;;11.09;100.00;94407.75;10429623;28;20620;-71
2023/04/20 22:17:28;;;;;;;12.23;7.43;;;;;;;10.98;100.00;94401.69;10429483;28;20037;-70
2023/04/20 22:22:30;;;;;;;14.32;8.55;;;;;;;10.97;100.00;94405.44;10427830;28;20040;-71
2023/04/20 22:27:31;;;;;;;13.18;6.85;;;;;;;10.86;100.00;94402.03;10429407;28;20031;-72
2023/04/20 22:32:32;;;;;;;12.65;7.93;;;;;;;10.76;100.00;94397.56;10410836;28;20030;-71
2023/04/20 22:37:33;;;;;;;12.87;7.97;;;;;;;10.66;100.00;94388.78;10428690;28;20040;-71
2023/04/20 22:42:37;;;;;;;15.65;8.23;;;;;;;10.57;100.00;94388.59;10416211;28;20789;-72
2023/04/20 22:47:37;;;;;;;12.23;7.47;;;;;;;10.46;100.00;94395.91;10412720;28;20032;-70
2023/04/20 22:52:38;;;;;;;17.40;10.52;;;;;;;10.41;100.00;94394.09;10427756;28;20104;-70